Time;durP1;ratioP1;P1;durP2;ratioP2;P2;SDS_P1;SDS_P2;PMS_P1;PMS_P2;Temp;Humidity;BMP_temperature;BMP_pressure;BME280_temperature;BME280_humidity;BME280_pressure;Samples;Min_cycle;Max_cycle;Signal;HPM_P1;HPM_P2
2021/04/25 00:00:35;;;;;;;1.15;1.05;;;;;;;8.34;41.44;101448.97;6184062;23;20067;-73
2021/04/25 00:03:00;;;;;;;0.95;0.95;;;;;;;8.26;41.93;101448.44;6207376;23;20000;-72
2021/04/25 00:05:28;;;;;;;6.88;1.50;;;;;;;8.31;41.82;101464.94;6185313;23;20016;-71
2021/04/25 00:08:01;;;;;;;1.10;1.00;;;;;;;8.17;42.16;101451.44;6208819;23;20945;-73
2021/04/25 00:10:26;;;;;;;2.15;1.20;;;;;;;8.17;41.91;101459.59;6189231;23;20008;-72
2021/04/25 00:12:52;;;;;;;1.27;1.17;;;;;;;8.04;42.00;101449.69;6186281;23;20005;-72
2021/04/25 00:15:26;;;;;;;1.38;1.27;;;;;;;8.10;42.16;101453.38;6188088;23;20062;-73
2021/04/25 00:17:54;;;;;;;4.80;1.25;;;;;;;8.06;42.49;101457.66;6208030;23;20435;-71
2021/04/25 00:20:20;;;;;;;1.80;1.70;;;;;;;8.06;43.09;101462.25;6214668;23;20402;-72
2021/04/25 00:22:47;;;;;;;2.63;2.22;;;;;;;8.04;43.13;101459.75;6186944;23;20009;-72
2021/04/25 00:25:14;;;;;;;2.45;1.45;;;;;;;7.93;43.16;101447.69;6183505;23;20004;-72
2021/04/25 00:27:40;;;;;;;2.22;1.55;;;;;;;7.89;43.34;101438.31;6180351;23;20005;-71
2021/04/25 00:30:08;;;;;;;1.88;1.58;;;;;;;7.80;43.92;101426.03;6213662;23;20015;-72
2021/04/25 00:32:41;;;;;;;2.33;1.52;;;;;;;7.85;44.20;101437.91;6184276;23;20451;-74
2021/04/25 00:35:08;;;;;;;2.53;1.50;;;;;;;7.92;44.17;101446.03;6210441;23;20008;-75
2021/04/25 00:37:33;;;;;;;2.60;2.03;;;;;;;7.86;44.46;101436.84;6188107;23;20435;-73
2021/04/25 00:39:58;;;;;;;1.70;1.35;;;;;;;7.92;44.33;101439.75;6212359;23;20023;-73
2021/04/25 00:42:24;;;;;;;2.92;1.90;;;;;;;7.83;44.71;101439.19;6214511;23;20608;-73
2021/04/25 00:44:54;;;;;;;10.00;1.73;;;;;;;7.70;44.02;101426.53;6213291;23;20005;-74
2021/04/25 00:47:20;;;;;;;1.27;1.27;;;;;;;7.77;44.03;101456.41;6184289;23;20004;-74
2021/04/25 00:49:45;;;;;;;1.10;1.00;;;;;;;7.65;44.20;101445.41;6201401;23;20011;-73
2021/04/25 00:52:11;;;;;;;2.00;1.63;;;;;;;7.56;44.26;101433.94;6216586;23;20011;-73
2021/04/25 00:54:42;;;;;;;1.20;1.10;;;;;;;7.54;44.74;101440.69;6157726;23;20406;-73
2021/04/25 00:57:26;;;;;;;1.92;1.55;;;;;;;7.58;44.49;101444.63;6212237;23;20482;-74
2021/04/25 00:59:55;;;;;;;1.83;1.30;;;;;;;7.51;44.66;101434.63;6209174;23;20127;-74
2021/04/25 01:02:30;;;;;;;1.88;1.77;;;;;;;7.40;44.88;101431.78;6190233;23;20087;-73
2021/04/25 01:05:04;;;;;;;1.27;0.82;;;;;;;7.41;44.83;101445.16;6204031;23;20064;-73
2021/04/25 01:07:29;;;;;;;0.70;0.70;;;;;;;7.38;44.71;101448.34;6230699;23;20011;-73
2021/04/25 01:09:57;;;;;;;2.90;1.35;;;;;;;7.37;44.89;101446.66;6218467;23;20005;-73
2021/04/25 01:12:23;;;;;;;2.42;1.08;;;;;;;7.15;45.84;101413.53;6228795;22;20031;-74
2021/04/25 01:14:58;;;;;;;;;;;;;;;;;;;;;
2021/04/25 01:17:27;;;;;;;;;;;;;;;7.32;45.81;101435.59;6274194;22;20106;-75
2021/04/25 01:20:16;;;;;;;2.10;2.00;;;;;;;7.33;45.83;101431.84;6256324;22;19906;-74
2021/04/25 01:22:49;;;;;;;1.67;1.58;;;;;;;7.23;45.97;101415.13;6283692;22;20438;-75
2021/04/25 01:25:20;;;;;;;1.48;1.38;;;;;;;7.16;45.88;101410.59;6309567;22;20056;-75
2021/04/25 01:27:49;;;;;;;1.80;1.70;;;;;;;7.20;46.52;101415.59;6284257;22;20014;-74
2021/04/25 01:30:22;;;;;;;3.50;1.52;;;;;;;7.02;46.54;101406.28;6282267;22;20007;-74
2021/04/25 01:32:48;;;;;;;1.60;1.50;;;;;;;7.07;46.10;101416.53;6282675;22;20018;-74
2021/04/25 01:35:16;;;;;;;4.60;1.48;;;;;;;6.95;46.56;101419.94;6308154;22;20303;-74
2021/04/25 01:37:43;;;;;;;1.65;1.55;;;;;;;7.04;47.27;101441.41;6282675;22;20425;-74
2021/04/25 01:40:10;;;;;;;2.30;2.20;;;;;;;6.85;47.25;101416.00;6283500;22;20432;-73
2021/04/25 01:42:35;;;;;;;2.15;1.88;;;;;;;6.78;47.57;101414.16;6255861;22;20007;-75
2021/04/25 01:45:01;;;;;;;1.05;1.05;;;;;;;6.88;47.35;101440.03;6309172;22;20441;-73
2021/04/25 01:47:26;;;;;;;1.63;1.52;;;;;;;6.70;47.55;101427.16;6299383;22;20418;-72
2021/04/25 01:49:52;;;;;;;5.65;1.50;;;;;;;6.78;48.16;101446.78;6281891;22;20345;-73
2021/04/25 01:52:25;;;;;;;1.88;1.60;;;;;;;6.68;47.98;101427.38;6252125;22;20482;-73
2021/04/25 01:54:50;;;;;;;1.95;1.30;;;;;;;6.73;48.37;101438.44;6279538;22;20011;-73
2021/04/25 01:57:16;;;;;;;5.07;1.70;;;;;;;6.71;48.06;101434.25;6301781;22;20013;-71
2021/04/25 01:59:41;;;;;;;2.92;1.92;;;;;;;6.71;48.53;101435.09;6253528;22;20879;-72
2021/04/25 02:02:28;;;;;;;1.90;1.80;;;;;;;6.67;49.05;101422.97;6279053;22;20007;-72
2021/04/25 02:04:53;;;;;;;1.73;1.63;;;;;;;6.69;48.79;101426.31;6278747;22;20003;-73
2021/04/25 02:07:19;;;;;;;1.60;1.50;;;;;;;6.46;49.40;101394.22;6280184;22;20007;-74
2021/04/25 02:09:44;;;;;;;1.58;1.48;;;;;;;6.49;49.19;101403.84;6280081;22;20034;-73
2021/04/25 02:12:15;;;;;;;2.13;2.03;;;;;;;6.44;49.16;101408.03;6287833;22;20016;-73
2021/04/25 02:14:42;;;;;;;1.85;1.75;;;;;;;6.53;48.67;101422.22;6222391;22;20326;-72
2021/04/25 02:17:08;;;;;;;1.48;1.38;;;;;;;6.49;48.77;101420.13;6274357;22;20008;-72
2021/04/25 02:19:34;;;;;;;1.75;1.65;;;;;;;6.36;49.47;101410.97;6245790;22;20071;-71
2021/04/25 02:21:59;;;;;;;1.67;1.58;;;;;;;6.25;49.79;101403.47;6244743;22;20004;-73
2021/04/25 02:24:25;;;;;;;2.70;1.63;;;;;;;6.29;50.23;101423.72;6272950;22;20008;-73
2021/04/25 02:26:50;;;;;;;1.73;1.55;;;;;;;6.16;49.76;101415.63;6273773;22;20019;-71
2021/04/25 02:29:16;;;;;;;1.10;1.00;;;;;;;6.08;49.63;101420.22;6273579;22;20066;-71
2021/04/25 02:31:41;;;;;;;1.20;1.10;;;;;;;6.08;50.03;101425.66;6234895;22;20451;-72
2021/04/25 02:34:10;;;;;;;1.83;1.70;;;;;;;6.00;50.45;101415.03;6219964;22;20004;-72
2021/04/25 02:36:35;;;;;;;1.83;1.73;;;;;;;6.04;50.32;101424.41;6246976;22;20035;-74
2021/04/25 02:39:06;;;;;;;1.88;1.35;;;;;;;6.05;50.44;101422.53;6217273;22;20377;-72
2021/04/25 02:41:32;;;;;;;2.10;2.00;;;;;;;5.89;50.66;101408.31;6269851;22;20038;-71
2021/04/25 02:43:57;;;;;;;2.60;2.45;;;;;;;6.03;52.11;101428.19;6245432;22;20677;-72
2021/04/25 02:46:23;;;;;;;3.13;2.92;;;;;;;5.91;51.66;101398.09;6272494;22;20027;-71
2021/04/25 02:48:49;;;;;;;2.05;1.95;;;;;;;5.94;51.52;101415.81;6245949;22;20027;-72
2021/04/25 02:51:14;;;;;;;2.90;2.70;;;;;;;5.98;51.92;101419.81;6245825;22;20011;-71
2021/04/25 02:53:40;;;;;;;1.85;1.63;;;;;;;5.94;51.77;101418.53;6217897;22;20680;-71
2021/04/25 02:56:07;;;;;;;1.98;1.88;;;;;;;5.88;52.49;101419.38;6244694;22;20127;-72
2021/04/25 02:58:37;;;;;;;2.65;2.45;;;;;;;5.89;52.76;101431.94;6271224;22;20040;-72
2021/04/25 03:01:03;;;;;;;3.45;2.42;;;;;;;5.83;52.85;101411.06;6246099;22;20051;-72
2021/04/25 03:03:28;;;;;;;3.22;2.47;;;;;;;5.91;53.27;101413.53;6244706;22;20098;-71
2021/04/25 03:05:58;;;;;;;2.83;2.53;;;;;;;5.92;53.95;101412.50;6270810;22;20073;-72
2021/04/25 03:08:26;;;;;;;3.05;2.47;;;;;;;5.96;53.57;101430.03;6274448;22;20039;-72
2021/04/25 03:10:51;;;;;;;5.40;2.70;;;;;;;5.96;53.99;101421.91;6193243;22;20000;-71
2021/04/25 03:13:19;;;;;;;5.00;2.88;;;;;;;5.99;54.31;101426.94;6273247;22;20019;-72
2021/04/25 03:15:55;;;;;;;3.28;2.63;;;;;;;5.96;54.54;101416.47;6244520;22;20460;-73
2021/04/25 03:18:24;;;;;;;2.90;2.70;;;;;;;5.97;55.07;101428.16;6266297;22;20155;-73
2021/04/25 03:20:49;;;;;;;3.20;2.88;;;;;;;5.93;54.90;101422.31;6243654;22;20304;-73
2021/04/25 03:23:27;;;;;;;;;;;;;;;;;;;;;
2021/04/25 03:25:56;;;;;;;2.92;2.40;;;;;;;5.70;55.56;101384.75;6246286;22;20071;-74
2021/04/25 03:28:21;;;;;;;3.30;2.40;;;;;;;5.88;55.09;101408.53;6273554;22;20006;-73
2021/04/25 03:30:55;;;;;;;2.60;2.05;;;;;;;5.93;55.46;101416.91;6245268;22;20537;-73
2021/04/25 03:33:28;;;;;;;6.55;2.00;;;;;;;5.69;55.60;101389.31;6222222;22;20031;-72
2021/04/25 03:35:54;;;;;;;2.28;1.85;;;;;;;5.73;55.51;101406.88;6220067;22;20011;-72
2021/04/25 03:38:19;;;;;;;3.78;2.65;;;;;;;5.90;55.83;101430.91;6244669;22;20003;-71
2021/04/25 03:40:44;;;;;;;6.53;2.00;;;;;;;5.85;55.81;101426.06;6264817;22;20067;-71
2021/04/25 03:43:10;;;;;;;1.80;1.67;;;;;;;5.84;55.86;101426.28;6273079;22;20049;-72
2021/04/25 03:45:36;;;;;;;2.30;2.10;;;;;;;5.77;55.95;101421.69;6269921;22;20000;-72
2021/04/25 03:48:01;;;;;;;6.15;2.03;;;;;;;5.76;55.84;101427.34;6273031;22;20062;-72
2021/04/25 03:50:27;;;;;;;6.95;2.17;;;;;;;5.69;56.47;101419.19;6270938;22;20003;-73
2021/04/25 03:52:53;;;;;;;3.67;2.20;;;;;;;5.63;56.32;101411.06;6274313;22;20022;-73
2021/04/25 03:55:24;;;;;;;2.03;1.92;;;;;;;5.65;56.05;101426.09;6272366;22;20007;-72
2021/04/25 03:57:50;;;;;;;2.50;1.98;;;;;;;5.58;56.40;101417.13;6272580;22;20423;-72
2021/04/25 04:00:33;;;;;;;3.95;1.42;;;;;;;5.59;56.35;101425.06;6266283;22;20539;-73
2021/04/25 04:02:59;;;;;;;4.13;1.70;;;;;;;5.62;56.58;101429.19;6246123;22;20474;-71
2021/04/25 04:05:24;;;;;;;4.20;2.28;;;;;;;5.53;56.88;101416.91;6244219;22;20088;-70
2021/04/25 04:07:50;;;;;;;2.70;1.50;;;;;;;5.47;56.75;101401.47;6242468;22;20017;-72
2021/04/25 04:10:16;;;;;;;1.73;1.52;;;;;;;5.59;56.05;101426.91;6272589;22;20003;-72
2021/04/25 04:12:41;;;;;;;1.95;1.80;;;;;;;5.50;56.40;101420.03;6266099;22;20111;-72
2021/04/25 04:15:08;;;;;;;5.65;1.77;;;;;;;5.53;56.48;101425.84;6274504;22;20076;-74
2021/04/25 04:17:33;;;;;;;1.88;1.55;;;;;;;5.53;57.23;101427.75;6264965;22;20007;-73
2021/04/25 04:19:59;;;;;;;3.28;1.85;;;;;;;5.49;57.35;101421.06;6264853;22;20004;-72
2021/04/25 04:22:32;;;;;;;5.70;2.08;;;;;;;5.52;57.08;101428.78;6268109;22;20064;-74
2021/04/25 04:24:57;;;;;;;5.25;2.47;;;;;;;5.52;57.73;101426.06;6273041;22;20030;-72
2021/04/25 04:27:30;;;;;;;3.05;1.95;;;;;;;5.52;57.81;101412.50;6273820;22;20430;-73
2021/04/25 04:30:05;;;;;;;4.05;2.05;;;;;;;5.54;57.23;101424.81;6274211;22;20608;-73
2021/04/25 04:32:30;;;;;;;1.92;1.65;;;;;;;5.39;57.46;101405.22;6273794;22;20065;-73
2021/04/25 04:34:58;;;;;;;3.22;2.08;;;;;;;5.54;57.33;101435.69;6277518;22;20027;-74
2021/04/25 04:37:54;;;;;;;3.63;1.48;;;;;;;5.41;57.01;101425.66;6274795;22;20461;-74
2021/04/25 04:40:24;;;;;;;3.37;2.13;;;;;;;5.24;56.89;101413.53;6272882;22;20090;-74
2021/04/25 04:42:50;;;;;;;4.00;1.40;;;;;;;5.26;56.77;101433.16;6272757;22;20014;-73
2021/04/25 04:45:19;;;;;;;1.58;1.48;;;;;;;5.29;57.35;101454.44;6275322;22;20090;-73
2021/04/25 04:47:46;;;;;;;2.78;1.00;;;;;;;5.18;56.95;101452.31;6273679;22;20303;-74
2021/04/25 04:50:18;;;;;;;1.33;1.30;;;;;;;5.04;57.77;101438.72;6269342;22;20011;-74
2021/04/25 04:52:45;;;;;;;1.63;0.90;;;;;;;4.98;57.00;101452.25;6273933;22;20008;-74
2021/04/25 04:55:14;;;;;;;8.30;1.10;;;;;;;4.95;56.72;101452.66;6274299;22;20004;-75
2021/04/25 04:58:16;;;;;;;;;;;;;;;;;;;;;
2021/04/25 05:00:42;;;;;;;1.33;1.27;;;;;;;4.71;57.77;101442.16;6278566;22;20087;-74
2021/04/25 05:03:33;;;;;;;;;;;;;;;;;;;;;
2021/04/25 05:05:59;;;;;;;2.17;1.80;;;;;;;4.79;57.89;101451.16;6277109;22;20075;-74
2021/04/25 05:08:30;;;;;;;1.15;1.05;;;;;;;4.70;58.24;101435.06;6276209;22;20369;-74
2021/04/25 05:11:05;;;;;;;1.30;1.20;;;;;;;4.89;58.39;101454.31;6273133;22;20004;-75
2021/04/25 05:13:34;;;;;;;1.65;1.40;;;;;;;4.91;57.99;101457.66;6251941;22;20011;-75
2021/04/25 05:16:02;;;;;;;3.60;1.98;;;;;;;4.90;58.21;101448.69;6222572;22;20035;-78
2021/04/25 05:18:27;;;;;;;1.90;1.80;;;;;;;5.15;58.89;101480.66;6248297;22;20014;-74
2021/04/25 05:20:55;;;;;;;2.78;1.75;;;;;;;5.17;59.07;101469.63;6249341;22;20004;-73
2021/04/25 05:23:29;;;;;;;3.58;1.35;;;;;;;5.19;58.73;101464.84;6248828;22;20011;-74
2021/04/25 05:26:14;;;;;;;2.67;1.83;;;;;;;5.20;58.41;101453.78;6250174;22;20049;-74
2021/04/25 05:28:40;;;;;;;2.40;1.83;;;;;;;5.30;59.11;101461.53;6251515;22;20010;-74
2021/04/25 05:31:17;;;;;;;2.38;2.28;;;;;;;5.34;59.48;101470.91;6217411;22;20071;-73
2021/04/25 05:33:50;;;;;;;4.15;2.47;;;;;;;5.48;59.18;101496.19;6250722;22;20007;-74
2021/04/25 05:36:34;;;;;;;3.92;1.83;;;;;;;5.45;59.07;101482.19;6225203;22;20391;-75
2021/04/25 05:39:07;;;;;;;3.92;1.83;;;;;;;5.29;58.75;101449.00;6278369;22;20023;-72
2021/04/25 05:41:37;;;;;;;5.10;1.77;;;;;;;5.39;59.06;101454.88;6292772;22;19999;-73
2021/04/25 05:44:03;;;;;;;4.13;1.88;;;;;;;5.51;58.92;101473.25;6241914;22;20008;-73
2021/04/25 05:46:33;;;;;;;2.50;1.60;;;;;;;5.66;59.18;101482.03;6290182;22;20007;-73
2021/04/25 05:49:22;;;;;;;1.80;1.70;;;;;;;5.47;58.93;101434.00;6251608;22;20020;-73
2021/04/25 05:51:55;;;;;;;2.00;1.45;;;;;;;5.57;58.83;101439.84;6267382;22;20003;-73
2021/04/25 05:55:01;;;;;;;6.28;2.05;;;;;;;5.67;59.16;101445.72;6246064;22;20415;-75
2021/04/25 05:57:26;;;;;;;3.05;1.70;;;;;;;5.95;58.57;101482.66;6225725;22;20008;-74
2021/04/25 05:59:54;;;;;;;4.78;2.15;;;;;;;6.15;58.93;101501.69;6215506;22;20015;-72
2021/04/25 06:02:27;;;;;;;4.82;2.47;;;;;;;6.09;58.93;101480.81;6248007;22;20335;-74
2021/04/25 06:04:52;;;;;;;3.38;2.35;;;;;;;6.18;58.88;101490.41;6228142;22;20014;-74
2021/04/25 06:07:19;;;;;;;7.97;2.75;;;;;;;6.36;59.31;101497.06;6221837;22;20004;-75
2021/04/25 06:09:44;;;;;;;4.85;2.60;;;;;;;6.37;59.05;101479.75;6274308;22;20433;-75
2021/04/25 06:12:12;;;;;;;5.53;2.45;;;;;;;6.53;59.00;101490.16;6255281;22;20019;-74
2021/04/25 06:14:38;;;;;;;4.43;2.63;;;;;;;6.61;59.19;101489.06;6274631;22;20057;-74
2021/04/25 06:17:04;;;;;;;5.35;2.90;;;;;;;6.77;58.96;101501.34;6277001;22;20000;-74
2021/04/25 06:19:29;;;;;;;10.25;3.75;;;;;;;6.81;59.30;101495.28;6250635;22;20103;-73
2021/04/25 06:21:57;;;;;;;5.82;3.00;;;;;;;6.95;58.87;101496.06;6272494;22;20007;-74
2021/04/25 06:24:22;;;;;;;5.10;3.35;;;;;;;7.22;58.88;101519.59;6248931;22;20450;-74
2021/04/25 06:26:55;;;;;;;3.92;2.92;;;;;;;7.32;58.48;101525.41;6270827;22;20011;-74
2021/04/25 06:29:26;;;;;;;4.10;2.70;;;;;;;7.46;58.44;101518.84;6276482;22;20015;-73
2021/04/25 06:31:51;;;;;;;2.97;2.78;;;;;;;7.49;58.25;101507.50;6273343;22;20004;-72
2021/04/25 06:34:17;;;;;;;8.95;2.97;;;;;;;7.73;58.12;101524.09;6276117;22;20010;-73
2021/04/25 06:36:43;;;;;;;5.03;3.58;;;;;;;7.69;58.19;101511.97;6268730;22;20086;-73
2021/04/25 06:41:58;;;;;;;5.50;3.70;;;;;;;7.71;57.90;101485.38;6262232;22;20008;-74
2021/04/25 06:44:30;;;;;;;9.95;4.13;;;;;;;7.89;57.35;101494.69;6272531;22;20003;-72
2021/04/25 06:46:56;;;;;;;6.72;3.38;;;;;;;8.09;56.92;101508.97;6273721;22;20083;-71
2021/04/25 06:49:22;;;;;;;6.50;3.63;;;;;;;8.36;57.08;101525.06;6247974;22;20348;-72
2021/04/25 06:51:48;;;;;;;8.73;4.13;;;;;;;8.36;56.94;101512.25;6266642;22;20008;-73
2021/04/25 06:54:14;;;;;;;4.47;3.90;;;;;;;8.41;56.77;101508.88;6274061;22;20428;-73
2021/04/25 06:56:42;;;;;;;8.10;4.15;;;;;;;8.55;57.07;101532.22;6274598;22;20003;-74
2021/04/25 06:59:07;;;;;;;11.05;5.03;;;;;;;8.50;57.02;101518.44;6275508;22;20003;-73
2021/04/25 07:01:33;;;;;;;3.90;3.00;;;;;;;8.68;56.06;101530.44;6274500;22;20035;-73
2021/04/25 07:03:58;;;;;;;8.60;4.00;;;;;;;8.72;56.80;101520.75;6271742;22;20011;-73
2021/04/25 07:06:24;;;;;;;3.63;3.28;;;;;;;8.96;56.64;101537.25;6275435;22;20010;-72
2021/04/25 07:08:51;;;;;;;6.15;4.25;;;;;;;8.98;55.91;101530.50;6269728;22;20014;-74
2021/04/25 07:11:17;;;;;;;6.00;3.30;;;;;;;9.03;55.69;101521.63;6267639;22;20000;-74
2021/04/25 07:13:42;;;;;;;9.52;3.55;;;;;;;9.26;56.32;101532.66;6220646;22;20018;-72
2021/04/25 07:16:08;;;;;;;6.22;4.70;;;;;;;9.35;55.42;101524.16;6261598;22;20000;-73
2021/04/25 07:18:34;;;;;;;6.38;4.22;;;;;;;9.48;55.68;101523.97;6272912;22;20000;-73
2021/04/25 07:20:59;;;;;;;4.57;3.38;;;;;;;9.59;54.49;101520.47;6248183;22;20053;-73
2021/04/25 07:23:25;;;;;;;6.95;4.28;;;;;;;9.68;54.33;101512.78;6248206;22;20008;-74
2021/04/25 07:25:55;;;;;;;6.22;3.63;;;;;;;9.86;54.38;101530.16;6273762;22;20075;-72
2021/04/25 07:28:23;;;;;;;7.45;3.63;;;;;;;9.90;54.40;101526.72;6246124;22;20008;-74
2021/04/25 07:30:48;;;;;;;9.30;4.75;;;;;;;9.98;54.18;101530.19;6275311;22;20449;-74
2021/04/25 07:33:18;;;;;;;9.82;4.32;;;;;;;10.01;53.92;101532.44;6248502;22;20086;-74
2021/04/25 07:35:44;;;;;;;9.75;4.95;;;;;;;10.07;53.97;101536.97;6247897;22;20017;-73
2021/04/25 07:38:10;;;;;;;8.95;3.72;;;;;;;10.10;53.18;101514.63;6247831;22;20099;-77
2021/04/25 07:40:37;;;;;;;11.32;4.15;;;;;;;10.12;52.66;101513.31;6250709;22;20000;-75
2021/04/25 07:43:04;;;;;;;10.65;4.78;;;;;;;10.27;52.70;101520.22;6250389;22;20008;-76
2021/04/25 07:45:29;;;;;;;7.95;4.00;;;;;;;10.23;52.09;101502.63;6275791;22;20065;-75
2021/04/25 07:48:05;;;;;;;;;;;;;;;;;;;;;
2021/04/25 07:50:33;;;;;;;;;;;;;;;10.60;51.02;101530.59;6278387;22;20083;-74
2021/04/25 07:53:00;;;;;;;6.75;4.20;;;;;;;10.60;51.30;101535.22;6275550;22;19953;-75
2021/04/25 07:55:27;;;;;;;6.22;4.03;;;;;;;10.63;50.57;101541.06;6250558;22;20007;-75
2021/04/25 07:57:52;;;;;;;8.32;3.45;;;;;;;10.68;51.84;101542.25;6279446;22;20003;-75
2021/04/25 08:00:18;;;;;;;6.20;3.33;;;;;;;10.63;51.72;101521.91;6259176;22;20010;-74
2021/04/25 08:02:44;;;;;;;8.75;4.22;;;;;;;10.69;50.89;101516.53;6265292;22;20012;-74
2021/04/25 08:05:10;;;;;;;6.95;3.72;;;;;;;10.90;50.72;101535.06;6285660;22;20039;-74
2021/04/25 08:07:35;;;;;;;4.72;3.30;;;;;;;11.00;50.50;101524.31;6278818;22;20007;-74
2021/04/25 08:10:04;;;;;;;9.80;3.80;;;;;;;11.10;49.64;101531.94;6278892;22;20042;-76
2021/04/25 08:12:30;;;;;;;18.67;4.38;;;;;;;11.10;49.26;101518.25;6273842;22;20339;-74
2021/04/25 08:14:55;;;;;;;4.47;3.30;;;;;;;11.19;49.24;101526.91;6273986;22;20007;-77
2021/04/25 08:17:21;;;;;;;3.60;3.30;;;;;;;11.22;48.77;101520.13;6249924;22;20447;-75
2021/04/25 08:19:48;;;;;;;10.07;3.28;;;;;;;11.33;49.03;101531.00;6249235;22;20008;-76
2021/04/25 08:22:14;;;;;;;4.80;2.65;;;;;;;11.49;48.95;101536.78;6247587;22;20008;-74
2021/04/25 08:24:39;;;;;;;3.70;2.60;;;;;;;11.62;48.16;101528.28;6266601;22;20589;-74
2021/04/25 08:27:07;;;;;;;3.30;2.83;;;;;;;11.76;47.14;101514.25;6245814;22;20433;-76
2021/04/25 08:29:33;;;;;;;3.53;3.22;;;;;;;11.86;46.93;101519.91;6250457;22;20011;-77
2021/04/25 08:32:06;;;;;;;5.72;2.72;;;;;;;11.84;46.79;101505.63;6246493;22;20023;-76
2021/04/25 08:34:35;;;;;;;2.78;2.58;;;;;;;12.02;46.41;101513.63;6272100;22;20014;-76
2021/04/25 08:37:00;;;;;;;5.35;2.40;;;;;;;12.15;46.53;101517.97;6223819;22;20019;-75
2021/04/25 08:39:26;;;;;;;3.15;2.83;;;;;;;12.25;46.50;101516.44;6279039;22;19996;-76
2021/04/25 08:41:54;;;;;;;6.70;2.83;;;;;;;12.38;46.55;101521.59;6246394;22;20078;-76
2021/04/25 08:44:20;;;;;;;3.35;2.40;;;;;;;12.47;46.06;101513.75;6279479;22;19995;-77
2021/04/25 08:46:52;;;;;;;9.68;2.92;;;;;;;12.59;46.06;101517.25;6279693;22;20074;-77
2021/04/25 08:49:23;;;;;;;6.38;2.75;;;;;;;12.68;45.75;101507.47;6281986;22;20007;-77
2021/04/25 08:51:50;;;;;;;2.00;1.90;;;;;;;12.87;45.29;101509.94;6233349;22;20078;-76
2021/04/25 08:54:16;;;;;;;3.17;2.30;;;;;;;12.98;44.91;101511.72;6256536;22;20091;-76
2021/04/25 08:56:42;;;;;;;5.80;2.90;;;;;;;13.10;43.87;101490.44;6233350;22;20090;-79
2021/04/25 08:59:10;;;;;;;2.20;2.10;;;;;;;13.24;43.85;101501.00;6257041;22;20087;-77
2021/04/25 09:01:38;;;;;;;3.03;1.67;;;;;;;13.27;43.28;101495.00;6255264;22;20007;-78
2021/04/25 09:04:32;;;;;;;;;;;;;;;;;;;;;
2021/04/25 09:07:15;;;;;;;2.25;1.95;;;;;;;13.58;42.77;101500.84;6258478;22;20058;-78
2021/04/25 09:10:06;;;;;;;1.80;1.65;;;;;;;13.75;42.26;101504.31;6254446;22;20311;-76
2021/04/25 09:12:58;;;;;;;5.07;2.20;;;;;;;13.87;41.79;101503.31;6265388;22;20054;-77
2021/04/25 09:15:39;;;;;;;2.75;1.23;;;;;;;13.98;41.86;101483.06;6276423;22;20019;-73
2021/04/25 09:18:05;;;;;;;2.65;2.42;;;;;;;14.18;40.45;101492.53;6277530;22;20068;-73
2021/04/25 09:20:30;;;;;;;1.92;1.83;;;;;;;14.36;40.09;101513.31;6278146;22;20004;-74
2021/04/25 09:22:56;;;;;;;2.03;1.90;;;;;;;14.41;39.48;101503.19;6280328;22;20418;-77
2021/04/25 09:25:24;;;;;;;3.17;1.55;;;;;;;14.54;39.63;101501.84;6286592;22;20401;-75
2021/04/25 09:27:52;;;;;;;1.67;1.58;;;;;;;14.80;39.27;101518.56;6289958;22;20038;-77
2021/04/25 09:30:25;;;;;;;1.50;1.40;;;;;;;15.07;38.48;101521.16;6287318;22;20031;-74
2021/04/25 09:33:02;;;;;;;5.95;1.73;;;;;;;15.31;38.70;101512.41;6280543;22;20086;-75
2021/04/25 09:35:29;;;;;;;1.20;1.20;;;;;;;15.66;38.36;101530.13;6280659;22;20090;-74
2021/04/25 09:37:58;;;;;;;2.10;1.98;;;;;;;15.97;36.79;101521.91;6283412;22;20023;-77
2021/04/25 09:40:28;;;;;;;5.10;1.90;;;;;;;16.22;36.41;101513.63;6284052;22;20022;-77
2021/04/25 09:43:01;;;;;;;3.58;1.67;;;;;;;16.52;36.20;101511.91;6285887;22;20002;-80
2021/04/25 09:45:37;;;;;;;2.35;1.85;;;;;;;16.80;34.64;101506.03;6284136;22;19999;-79
2021/04/25 09:48:57;;;;;;;3.08;1.70;;;;;;;17.20;34.75;101513.38;6259158;22;20047;-79
2021/04/25 09:51:52;;;;;;;1.90;1.60;;;;;;;17.59;34.61;101500.66;6266543;22;20073;-75
2021/04/25 09:54:20;;;;;;;6.00;1.67;;;;;;;17.82;33.74;101503.84;6277022;22;20351;-75
2021/04/25 09:57:16;;;;;;;;;;;;;;;;;;;;;
2021/04/25 10:03:10;;;;;;;1.92;1.63;;;;;;;19.31;32.82;101530.81;6284605;22;20321;-79
2021/04/25 10:05:37;;;;;;;1.55;1.23;;;;;;;19.88;32.81;101518.91;6283813;22;20000;-78
2021/04/25 10:08:29;;;;;;;2.72;1.77;;;;;;;20.39;32.06;101509.66;6279118;22;20341;-76
2021/04/25 10:10:55;;;;;;;2.17;2.00;;;;;;;20.68;28.96;101507.78;6279102;22;20011;-76
2021/04/25 10:13:20;;;;;;;3.38;1.92;;;;;;;20.94;28.66;101494.19;6305009;22;20023;-74
2021/04/25 10:15:46;;;;;;;1.90;1.80;;;;;;;21.35;28.51;101509.97;6307095;22;19999;-74
2021/04/25 10:18:11;;;;;;;2.63;1.70;;;;;;;21.74;28.48;101516.88;6259312;22;20003;-76
2021/04/25 10:20:37;;;;;;;1.77;1.67;;;;;;;22.05;27.33;101499.41;6308851;22;20000;-75
2021/04/25 10:23:09;;;;;;;2.67;2.05;;;;;;;22.46;26.55;101509.50;6279030;22;20086;-77
2021/04/25 10:25:37;;;;;;;1.50;1.40;;;;;;;22.75;25.75;101510.94;6279136;22;20373;-75
2021/04/25 10:28:18;;;;;;;1.55;1.45;;;;;;;23.16;26.11;101501.38;6257367;22;20011;-78
2021/04/25 10:30:46;;;;;;;1.83;1.73;;;;;;;23.71;24.95;101521.44;6308471;22;20003;-75
2021/04/25 10:33:18;;;;;;;2.53;1.80;;;;;;;24.26;24.81;101521.88;6302819;22;20003;-75
2021/04/25 10:35:57;;;;;;;1.15;1.00;;;;;;;24.64;24.40;101504.34;6228736;22;20015;-76
2021/04/25 10:38:38;;;;;;;1.63;1.52;;;;;;;25.20;23.63;101526.56;6253353;22;20015;-75
2021/04/25 10:41:25;;;;;;;1.92;1.15;;;;;;;25.60;23.06;101529.75;6253404;22;20015;-76
2021/04/25 10:44:05;;;;;;;1.85;1.75;;;;;;;25.93;22.51;101517.78;6306453;22;20000;-73
2021/04/25 10:46:53;;;;;;;1.88;1.77;;;;;;;26.32;22.03;101537.16;6276126;22;20010;-74
2021/04/25 10:49:32;;;;;;;1.25;1.02;;;;;;;26.80;21.99;101546.03;6278518;22;20015;-76
2021/04/25 10:52:21;;;;;;;3.63;1.75;;;;;;;27.09;20.76;101530.13;6306912;22;20003;-74
2021/04/25 10:55:15;;;;;;;1.38;1.05;;;;;;;27.51;20.08;101535.44;6307041;22;20325;-76
2021/04/25 10:57:56;;;;;;;1.50;1.40;;;;;;;27.90;19.73;101530.13;6275183;22;20009;-74
2021/04/25 11:00:31;;;;;;;1.55;1.40;;;;;;;28.26;19.37;101527.53;6275074;22;19999;-75
2021/04/25 11:03:21;;;;;;;1.63;1.52;;;;;;;28.54;18.71;101521.84;6302924;22;20023;-74
2021/04/25 11:05:51;;;;;;;3.22;1.17;;;;;;;28.75;18.00;101512.31;6304328;22;20000;-75
2021/04/25 11:08:19;;;;;;;2.90;1.10;;;;;;;29.05;18.02;101515.44;6300792;22;20026;-76
2021/04/25 11:10:55;;;;;;;2.30;1.70;;;;;;;29.26;16.81;101520.78;6299661;22;20417;-76
2021/04/25 11:13:40;;;;;;;1.42;1.23;;;;;;;29.73;16.78;101514.13;6295574;22;20401;-75
2021/04/25 11:16:19;;;;;;;1.65;1.55;;;;;;;30.09;16.32;101509.19;6278105;22;20152;-74
2021/04/25 11:19:06;;;;;;;1.02;0.85;;;;;;;30.66;16.36;101517.06;6311568;22;20038;-78
2021/04/25 11:21:39;;;;;;;1.70;1.60;;;;;;;31.08;15.90;101516.13;6308973;22;20004;-77
2021/04/25 11:24:05;;;;;;;1.02;1.02;;;;;;;31.43;16.14;101515.00;6308089;22;20007;-75
2021/04/25 11:26:39;;;;;;;1.65;1.40;;;;;;;31.74;15.04;101507.31;6286955;22;20057;-78
2021/04/25 11:29:21;;;;;;;1.83;1.30;;;;;;;31.88;15.19;101512.34;6281324;22;20007;-77
2021/04/25 11:31:55;;;;;;;2.17;1.70;;;;;;;31.98;13.86;101516.47;6275659;22;20114;-78
2021/04/25 11:34:31;;;;;;;3.88;1.55;;;;;;;32.02;14.15;101517.31;6281037;22;20076;-76
2021/04/25 11:37:24;;;;;;;1.50;1.40;;;;;;;32.08;14.57;101524.28;6283827;22;20015;-81
2021/04/25 11:39:59;;;;;;;1.40;1.30;;;;;;;32.62;14.42;101521.97;6279555;22;20010;-75
2021/04/25 11:42:44;;;;;;;1.70;1.60;;;;;;;33.30;12.83;101509.50;6308741;22;20026;-78
2021/04/25 11:45:40;;;;;;;;;;;;;;;;;;;;;
2021/04/25 11:48:08;;;;;;;1.85;1.73;;;;;;;33.53;13.21;101495.84;6288365;22;20062;-77
2021/04/25 11:50:44;;;;;;;2.15;1.45;;;;;;;34.05;13.09;101487.09;6304463;22;20007;-77
2021/04/25 11:53:19;;;;;;;;;;;;;;;;;;;;;
2021/04/25 11:55:45;;;;;;;1.50;1.50;;;;;;;34.85;11.79;101487.94;6309483;22;20091;-77
2021/04/25 11:58:21;;;;;;;1.90;1.20;;;;;;;35.13;11.93;101509.81;6306324;22;20418;-76
2021/04/25 12:00:52;;;;;;;1.50;1.40;;;;;;;35.40;11.66;101511.38;6308531;22;20074;-76
2021/04/25 12:03:18;;;;;;;1.00;1.00;;;;;;;35.48;11.76;101507.25;6311613;22;20083;-78